Stations météo

réclame
Mon MeteoGroup
Nimes/Courbessac, France (7645): Température de l'air & dewpoint: 10.06.2019 17:00:00 - 16.06.2019 17:00:00 (CEST)Nimes/Courbessac, France (7645): Température de l'air 5cm: 10.06.2019 17:00:00 - 16.06.2019 17:00:00 (CEST)Nimes/Courbessac, France (7645): Température de l'air -20cm: 10.06.2019 17:00:00 - 16.06.2019 17:00:00 (CEST)Nimes/Courbessac, France (7645): Vitesse du vent & gusts: 10.06.2019 17:00:00 - 16.06.2019 17:00:00 (CEST)Nimes/Courbessac, France (7645): Direction du vent: 10.06.2019 17:00:00 - 16.06.2019 17:00:00 (CEST)Nimes/Courbessac, France (7645): reduced air pressure: 10.06.2019 17:00:00 - 16.06.2019 17:00:00 (CEST)Nimes/Courbessac, France (7645): Ensoleillement: 10.06.2019 17:00:00 - 16.06.2019 17:00:00 (CEST)Nimes/Courbessac, France (7645): Quantités de précipitations: 10.06.2019 17:00:00 - 16.06.2019 17:00:00 (CEST)
Date & Time tt [°C] td [°C] tt 5cm [°C] tt -20cm [°C] ff [km/h] ff [knt] fx [km/h] fx [knt] dd ppp [hPa] sd [min] rr [mm]
16.06.2019 17:00:00 29,7 9,8 35,5 23,8 18 10 45 24 N 1015,7 60 0,0
16.06.2019 16:00:00 29,5 8,5 36,6 23,3 19 10 40 22 N 1016,0 60 0,0
16.06.2019 15:00:00 28,8 10,0 35,8 22,9 19 11 42 23 NNW 1016,4 60 0,0
16.06.2019 14:00:00 27,9 9,7 32,5 22,4 17 9 46 25 NW 1016,8 60 0,0
16.06.2019 13:00:00 26,4 9,7 31,5 22,1 25 14 51 28 NNW 1017,4 60 0,0
16.06.2019 12:00:00 25,1 10,2 29,7 22,0 27 14 54 29 NNW 1018,1 60 0,0
16.06.2019 11:00:00 24,1 10,4 26,3 21,9 20 11 50 27 NNW 1018,6 60 0,0
16.06.2019 10:00:00 22,1 9,9 23,9 21,9 25 14 53 28 NNW 1018,4 60 0,0
16.06.2019 09:00:00 20,7 9,9 20,4 22,1 19 10 42 23 NNW 1018,9 60 0,0
16.06.2019 08:00:00 19,1 9,6 16,1 22,2 19 11 40 21 NW 1018,9 60 0,0
16.06.2019 07:00:00 16,9 9,3 14,8 22,4 19 11 34 19 NW 1018,9 30 0,0
16.06.2019 06:00:00 15,7 9,8 13,9 22,5 20 11 32 17 NW 1018,8 0 0,0
16.06.2019 05:00:00 15,5 11,1 14,6 22,7 15 8 27 14 WNW 1018,7 0 0,0
16.06.2019 04:00:00 16,1 11,5 14,9 22,9 11 6 27 15 WNW 1019,1 0 0,0
16.06.2019 03:00:00 17,1 11,4 12,6 23,1 12 7 26 14 NW 1019,1 0 0,0
16.06.2019 02:00:00 16,2 11,1 12,6 23,2 3 2 9 5 SSW 1019,4 0 0,0
16.06.2019 01:00:00 17,3 10,9 15,1 23,4 6 3 23 12 W 1019,5 0 0,0
16.06.2019 00:00:00 18,1 10,9 14,9 23,4 10 5 19 10 NW 1019,0 0 0,0
15.06.2019 23:00:00 18,3 11,1 16,4 23,5 9 5 26 14 NW 1018,4 0 0,0
15.06.2019 22:00:00 19,7 11,5 18,2 23,5 16 9 28 15 NW 1017,7 1 0,0
15.06.2019 21:00:00 21,0 11,1 20,1 23,5 13 7 37 20 NNW 1017,2 60 0,0
15.06.2019 20:00:00 22,3 10,8 22,5 23,4 21 11 38 21 NNW 1016,7 55 0,0
15.06.2019 19:00:00 23,3 12,6 26,2 23,2 22 12 41 22 N 1016,5 37 0,0
15.06.2019 18:00:00 26,0 14,8 28,7 23,0 12 6 31 17 WNW 1015,7 39 0,0
15.06.2019 17:00:00 25,6 15,9 29,0 22,9 9 5 22 12 WSW 1015,7 35 0,0
15.06.2019 16:00:00 24,1 18,3 26,3 22,7 11 6 29 15 S 1015,9 18 0,0
15.06.2019 15:00:00 23,9 17,9 26,1 22,7 16 8 27 15 SSE 1015,9 5 0,0
15.06.2019 14:00:00 23,5 18,4 22,0 22,6 16 8 26 14 SE 1016,0 25 0,0
15.06.2019 13:00:00 20,1 18,8 19,8 22,6 6 3 15 8 SSE 1016,4 0 0,0
15.06.2019 12:00:00 19,4 18,6 19,5 22,7 9 5 14 8 SE 1016,2 0 0,2
15.06.2019 11:00:00 19,5 18,0 19,6 22,7 4 2 9 5 ENE 1016,6 0 0,0
15.06.2019 10:00:00 19,3 18,5 18,9 22,8 3 2 9 5 ENE 1016,2 0 0,2
15.06.2019 09:00:00 19,1 17,4 19,2 22,9 5 3 11 6 E 1015,6 0 0,0
15.06.2019 08:00:00 19,0 17,1 18,4 23,0 6 3 10 6 NNE 1015,0 0 0,0
15.06.2019 07:00:00 18,2 16,9 17,8 23,1 0 0 11 6 N 1014,9 0 0,0
15.06.2019 06:00:00 17,9 16,9 17,8 23,1 8 4 12 7 NNE 1014,5 0 0,0
15.06.2019 05:00:00 18,3 17,8 18,1 23,2 0 0 13 7 N 1014,3 0 0,0
15.06.2019 04:00:00 18,4 17,9 18,1 23,3 10 5 16 9 E 1013,8 0 0,0
15.06.2019 03:00:00 18,8 18,3 18,4 23,4 9 5 17 9 E 1013,7 0 0,2
15.06.2019 02:00:00 19,2 18,5 18,9 23,5 8 5 25 13 ESE 1013,5 0 0,0
15.06.2019 01:00:00 19,6 18,6 19,2 23,5 11 6 24 13 E 1013,1 0 0,0
15.06.2019 00:00:00 19,5 18,8 19,2 23,5 9 5 21 11 ESE 1012,8 0 0,0
14.06.2019 23:00:00 20,4 18,9 19,8 23,6 14 7 22 12 SE 1012,3 0 0,0
14.06.2019 22:00:00 21,0 18,4 21,0 23,5 10 5 23 13 SE 1011,7 0 0,0
14.06.2019 21:00:00 21,4 18,6 21,4 23,5 6 4 32 17 ESE 1010,5 0 0,0
14.06.2019 20:00:00 23,0 17,2 22,9 23,3 20 11 44 24 SE 1010,1 7 0,0
14.06.2019 19:00:00 24,9 16,1 27,3 23,2 26 14 45 25 SSE 1008,8 19 0,0
14.06.2019 18:00:00 29,7 12,2 35,2 23,0 7 4 19 10 WNW 1007,1 58 0,0
14.06.2019 17:00:00 29,7 13,0 29,1 22,7 6 3 16 9 WNW 1007,8 40 0,0
14.06.2019 16:00:00 26,9 12,9 27,5 22,5 4 2 40 22 NW 1008,3 0 0,0
14.06.2019 15:00:00 26,4 12,1 27,1 22,3 13 7 36 19 N 1008,8 22 0,0
14.06.2019 14:00:00 25,3 11,5 27,8 22,2 21 11 50 27 NNW 1009,0 29 0,0
14.06.2019 13:00:00 25,4 11,6 22,8 22,2 22 12 50 27 NNW 1010,3 22 0,0
14.06.2019 12:00:00 21,1 11,1 20,7 22,2 18 10 47 25 NNW 1010,9 0 0,0
14.06.2019 11:00:00 19,3 10,3 20,4 22,3 13 7 29 16 NNW 1011,5 0 0,0
14.06.2019 10:00:00 18,6 10,4 20,2 22,4 9 5 19 10 N 1012,2 2 0,0
14.06.2019 09:00:00 18,4 9,7 15,2 22,6 5 3 31 17 NNW 1011,6 3 0,0
14.06.2019 08:00:00 16,2 8,2 14,3 22,7 18 10 36 20 NW 1012,1 0 0,2
14.06.2019 07:00:00 16,3 8,3 14,7 22,9 15 8 27 15 NW 1012,7 0 0,0
14.06.2019 06:00:00 16,8 7,2 15,3 23,1 13 7 25 13 NW 1012,6 0 0,0
14.06.2019 05:00:00 16,5 6,9 15,2 23,3 11 6 21 12 NW 1012,3 0 0,0
14.06.2019 04:00:00 16,2 8,4 14,7 23,5 11 6 19 10 NW 1012,8 0 0,0
14.06.2019 03:00:00 15,9 8,6 13,3 23,7 8 4 12 7 NW 1013,8 0 0,0
14.06.2019 02:00:00 15,5 9,8 13,7 23,9 5 3 12 6 WNW 1014,4 0 0,0
14.06.2019 01:00:00 15,9 11,1 13,8 24,0 7 4 11 6 WNW 1015,0 0 0,0
14.06.2019 00:00:00 17,2 11,0 15,5 24,2 5 3 13 7 WNW 1014,7 0 0,0
13.06.2019 23:00:00 17,3 11,3 15,1 24,3 4 2 9 5 NNW 1014,9 0 0,0
13.06.2019 22:00:00 18,8 11,4 16,7 24,3 3 1 11 6 SE 1014,7 0 0,0
13.06.2019 21:00:00 19,8 11,8 19,4 24,3 8 4 25 14 S 1014,5 0 0,0
13.06.2019 20:00:00 20,8 11,1 21,4 24,2 14 7 24 13 S 1014,1 0 0,0
13.06.2019 19:00:00 22,6 8,7 24,3 23,9 16 8 27 15 SSE 1014,1 2 0,0
13.06.2019 18:00:00 25,5 6,2 31,0 23,6 16 9 32 17 SSE 1013,7 51 0,0
13.06.2019 17:00:00 26,9 5,2 31,0 23,1 16 9 29 15 SSE 1013,8 45 0,0
13.06.2019 16:00:00 27,0 8,9 36,1 22,7 15 8 35 19 SE 1014,3 60 0,0
13.06.2019 15:00:00 26,9 5,8 35,1 22,2 15 8 35 19 SE 1014,6 60 0,0
13.06.2019 14:00:00 26,4 6,9 34,9 21,8 13 7 26 14 ESE 1014,7 60 0,0
13.06.2019 13:00:00 25,0 8,5 32,5 21,5 9 5 24 13 SSE 1015,2 60 0,0
13.06.2019 12:00:00 23,7 8,5 31,5 21,3 8 4 18 10 SE 1015,4 60 0,0
13.06.2019 11:00:00 22,6 10,4 26,6 21,3 8 4 16 9 E 1015,8 60 0,0
13.06.2019 10:00:00 20,7 11,9 23,0 21,4 4 2 11 6 ENE 1015,9 60 0,0
13.06.2019 09:00:00 18,5 12,0 18,0 21,5 5 3 16 9 NE 1016,0 60 0,0
13.06.2019 08:00:00 15,9 11,7 11,1 21,7 3 2 16 9 N 1015,8 60 0,0
13.06.2019 07:00:00 11,7 9,9 9,9 21,9 11 6 18 10 NW 1015,6 31 0,0
13.06.2019 06:00:00 11,0 9,9 8,1 22,2 10 5 15 8 NNW 1015,2 0 0,0
13.06.2019 05:00:00 10,2 9,4 8,1 22,4 5 3 19 11 NW 1014,9 0 0,0
13.06.2019 04:00:00 11,0 10,1 9,0 22,6 6 3 13 7 NW 1015,1 0 0,0
13.06.2019 03:00:00 11,1 9,8 9,3 22,8 6 3 10 5 NW 1015,4 0 0,0
13.06.2019 02:00:00 11,5 10,1 9,0 23,1 4 2 6 4 NW 1015,9 0 0,0
13.06.2019 01:00:00 12,6 10,7 10,1 23,2 4 2 9 5 WNW 1015,8 0 0,0
13.06.2019 00:00:00 14,4 11,2 11,8 23,4 4 2 17 9 ESE 1015,4 0 0,0
12.06.2019 23:00:00 16,0 11,2 14,8 23,5 11 6 19 11 SSW 1015,3 0 0,0
12.06.2019 22:00:00 17,0 9,9 15,2 23,6 12 7 22 12 S 1014,7 0 0,0
12.06.2019 21:00:00 18,5 9,0 17,6 23,6 10 5 26 14 S 1014,1 58 0,0
12.06.2019 20:00:00 21,0 7,9 23,5 23,5 14 8 26 14 S 1013,5 60 0,0
12.06.2019 19:00:00 22,2 7,6 27,3 23,3 16 9 29 16 S 1013,1 60 0,0
12.06.2019 18:00:00 23,0 7,9 31,1 23,1 13 7 27 15 S 1013,1 60 0,0
12.06.2019 17:00:00 23,0 8,7 31,3 22,6 15 8 32 17 SSE 1013,5 60 0,0
12.06.2019 16:00:00 23,1 8,4 32,8 22,2 19 10 36 19 S 1013,5 60 0,0
12.06.2019 15:00:00 23,0 8,7 31,4 21,8 20 11 34 19 SE 1013,4 60 0,0
12.06.2019 14:00:00 22,8 7,7 30,1 21,5 11 6 26 14 S 1013,3 60 0,0
12.06.2019 13:00:00 21,8 7,6 28,2 21,2 11 6 33 18 SSE 1013,5 58 0,0
12.06.2019 12:00:00 20,6 6,9 26,6 21,0 4 2 17 9 SSW 1013,8 60 0,0
12.06.2019 11:00:00 19,1 7,5 21,5 21,0 8 4 21 11 WNW 1014,1 60 0,0
12.06.2019 10:00:00 18,0 7,7 18,4 21,0 9 5 16 9 WNW 1014,0 60 0,0
12.06.2019 09:00:00 16,4 9,6 14,2 21,2 5 3 13 7 NW 1013,9 60 0,0
12.06.2019 08:00:00 13,7 10,3 9,6 21,4 6 4 18 10 NW 1013,6 60 0,0
12.06.2019 07:00:00 10,9 9,7 8,4 21,6 6 3 14 7 NW 1013,1 33 0,0
12.06.2019 06:00:00 9,6 9,1 6,8 21,8 6 3 8 4 WNW 1013,0 0 0,0
12.06.2019 05:00:00 10,2 9,6 8,0 21,9 2 1 8 4 NW 1012,7 0 0,0
12.06.2019 04:00:00 11,4 10,6 9,2 22,1 3 2 6 3 WNW 1012,7 0 0,0
12.06.2019 03:00:00 13,1 12,2 10,9 22,2 2 1 5 3 W 1012,6 0 0,0
12.06.2019 02:00:00 14,1 13,6 13,5 22,4 0 0 7 4 N 1012,2 0 0,2
12.06.2019 01:00:00 14,3 13,7 13,9 22,5 5 3 7 4 N 1012,5 0 0,8
12.06.2019 00:00:00 14,4 13,8 14,0 22,6 3 2 4 2 E 1012,7 0 0,6
11.06.2019 23:00:00 14,5 13,7 13,8 22,7 0 0 6 3 N 1012,3 0 0,0
11.06.2019 22:00:00 14,8 13,8 14,1 22,9 2 1 7 4 E 1012,2 0 0,0
11.06.2019 21:00:00 15,1 13,8 14,5 23,0 3 1 9 5 ESE 1011,7 0 0,0
11.06.2019 20:00:00 15,2 13,6 15,5 23,0 5 3 9 5 SSE 1012,0 0 0,2
11.06.2019 19:00:00 15,6 14,1 15,2 23,1 3 1 9 5 ESE 1012,0 0 0,4
11.06.2019 18:00:00 16,0 13,5 15,0 23,2 2 1 8 4 SSW 1011,9 0 0,2
11.06.2019 17:00:00 15,3 13,3 14,3 23,2 2 1 9 5 S 1012,3 0 1,6
11.06.2019 16:00:00 15,5 12,6 14,4 23,1 6 3 16 9 WSW 1012,1 0 0,4
11.06.2019 15:00:00 17,5 12,6 17,7 23,1 10 5 21 11 SSE 1012,2 0 0,2
11.06.2019 14:00:00 18,5 8,7 18,9 23,1 5 3 16 9 SSW 1011,9 0 0,0
11.06.2019 13:00:00 18,8 8,2 20,4 23,1 7 4 18 10 SW 1011,7 0 0,0
11.06.2019 12:00:00 19,1 7,2 20,9 23,1 9 5 19 11 NW 1011,3 0 0,0
11.06.2019 11:00:00 17,9 7,3 16,6 23,2 12 7 23 12 NNW 1011,1 0 0,0
11.06.2019 10:00:00 16,8 8,0 17,6 23,4 5 3 16 9 NNW 1011,5 0 0,0
11.06.2019 09:00:00 16,4 7,3 16,3 23,5 4 2 23 12 NNW 1011,1 0 0,0
11.06.2019 08:00:00 15,8 7,3 15,3 23,6 8 4 20 11 NW 1010,2 0 0,0
11.06.2019 07:00:00 15,4 6,9 14,6 23,8 11 6 30 16 NW 1010,7 0 0,0
11.06.2019 06:00:00 15,2 7,2 14,6 24,0 9 5 28 15 NW 1010,8 0 0,0
11.06.2019 05:00:00 15,7 7,2 14,5 24,2 10 5 23 12 NNW 1010,8 0 0,0
11.06.2019 04:00:00 16,1 7,6 14,5 24,3 2 1 23 13 N 1011,1 0 0,0
11.06.2019 03:00:00 17,1 7,7 16,6 24,4 10 6 23 12 WNW 1011,5 0 0,0
11.06.2019 02:00:00 17,0 9,2 16,6 24,6 7 4 21 12 WNW 1011,9 0 0,0
11.06.2019 01:00:00 17,2 9,9 16,6 24,8 11 6 30 16 NW 1012,0 0 0,0
11.06.2019 00:00:00 18,4 10,2 18,1 24,9 11 6 30 16 WNW 1012,1 0 0,0
10.06.2019 23:00:00 18,8 10,1 18,4 24,9 17 9 32 18 NNW 1011,9 0 0,0
10.06.2019 22:00:00 19,6 11,4 19,0 25,0 16 8 35 19 N 1011,0 0 0,0
10.06.2019 21:00:00 21,2 12,1 21,0 24,9 13 7 28 15 N 1010,6 0 0,0
10.06.2019 20:00:00 23,1 11,8 23,8 24,8 16 9 35 19 N 1009,9 58 0,0
10.06.2019 19:00:00 24,0 11,7 26,8 24,6 19 10 34 18 N 1009,6 56 0,0
10.06.2019 18:00:00 25,6 12,8 31,7 24,3 16 8 31 17 N 1009,6 60 0,0
10.06.2019 17:00:00 25,9 12,4 31,0 24,0 13 7 31 17 NNW 1009,9 52 0,0

tt = Température de l'air
td = dewpoint
tt 5cm = Température de l'air 5cm
tt -20cm = Température de l'air -20cm
ff = Vitesse du vent
fx = gusts
dd = Direction du vent
ppp = reduced air pressure
sd = Ensoleillement
rr = Quantités de précipitations

stations d'obs. à proximité